Lingo, New Mexico
Current Conditions -  °F | °C
As of 4:58 PM on Monday 24 Nov 2014 (Local Time) from KCVS Reporting Station
Clear Clear  
Wind Chill: 34°   Ceiling: Unl
Heat Index: 39°   Visibility: 10mi
Dew Point:   Wind: 7mph
Humidity: 27%   Direction: 30°NNE
Pressure: 30.06"   Gusts: NA
Location:  33.78°N, 103.12°W
Report Text: KCVS 242358Z AUTO 03006KT 10SM CLR 04/M14 A3006 RMK AO2 SLP192 T00391136 10096 20039 52020 $
Loading
Personal Weather Stations






























Interactive Weather Map New forecast layout! Learn more

10-Day Weather Forecast

Advertisements
Track Severe Weather on mobile